createdAt,value
2018-06-01T00:01:22.456Z,57.50
2018-06-01T00:03:50.880Z,57.43
2018-06-01T00:06:19.235Z,57.34
2018-06-01T00:08:47.608Z,56.96
2018-06-01T00:11:16.003Z,57.89
2018-06-01T00:13:44.356Z,58.07
2018-06-01T00:16:12.723Z,58.51
2018-06-01T00:18:41.895Z,58.40
2018-06-01T00:21:10.335Z,58.53
2018-06-01T00:23:38.690Z,58.66
2018-06-01T00:26:07.866Z,58.58
2018-06-01T00:28:36.276Z,58.50
2018-06-01T00:31:04.691Z,58.94
2018-06-01T00:33:33.097Z,58.93
2018-06-01T00:36:01.453Z,58.78
2018-06-01T00:38:29.849Z,58.61
2018-06-01T00:40:58.209Z,58.67
2018-06-01T00:43:26.572Z,58.86
2018-06-01T00:45:54.992Z,58.85
2018-06-01T00:48:23.379Z,58.89
2018-06-01T00:50:52.498Z,58.89
2018-06-01T00:53:21.613Z,58.92
2018-06-01T00:55:50.054Z,59.14
2018-06-01T00:58:20.666Z,59.38
2018-06-01T01:00:49.039Z,59.25
2018-06-01T01:03:17.391Z,59.28
2018-06-01T01:05:46.181Z,59.67
2018-06-01T01:08:14.666Z,59.50
2018-06-01T01:10:43.147Z,59.72
2018-06-01T01:13:11.508Z,59.71
2018-06-01T01:15:40.221Z,59.99
2018-06-01T01:18:09.051Z,60.28
2018-06-01T01:20:38.238Z,60.29
2018-06-01T01:23:06.685Z,60.30
2018-06-01T01:25:35.047Z,60.14
2018-06-01T01:28:04.147Z,59.81
2018-06-01T01:30:32.574Z,59.63
2018-06-01T01:33:00.947Z,59.72
2018-06-01T01:35:29.289Z,59.83
2018-06-01T01:37:57.972Z,59.92
2018-06-01T01:40:27.032Z,59.57
2018-06-01T01:42:55.413Z,59.64
2018-06-01T01:45:24.544Z,59.73
2018-06-01T01:47:52.963Z,59.96
2018-06-01T01:50:21.915Z,60.29
2018-06-01T01:52:50.288Z,60.17
2018-06-01T01:55:18.648Z,60.27
2018-06-01T01:57:47.229Z,60.36
2018-06-01T02:00:15.958Z,60.67
2018-06-01T02:02:44.369Z,61.28
2018-06-01T02:05:13.503Z,61.04
2018-06-01T02:07:41.874Z,61.12
2018-06-01T02:10:10.222Z,61.33
2018-06-01T02:12:38.681Z,61.87
2018-06-01T02:15:07.057Z,61.87
2018-06-01T02:17:35.402Z,61.98
2018-06-01T02:20:03.775Z,61.68
2018-06-01T02:22:33.086Z,62.00
2018-06-01T02:25:01.445Z,62.15
2018-06-01T02:27:29.795Z,62.61
2018-06-01T02:29:58.924Z,62.52
2018-06-01T02:32:27.372Z,62.77
2018-06-01T02:34:56.629Z,62.33
2018-06-01T02:37:25.363Z,62.29
2018-06-01T02:39:54.562Z,62.51
2018-06-01T02:42:24.364Z,62.75
2018-06-01T02:44:53.602Z,62.30
2018-06-01T02:47:22.034Z,62.52
2018-06-01T02:49:50.993Z,62.71
2018-06-01T02:52:19.378Z,62.62
2018-06-01T02:54:47.734Z,62.87
2018-06-01T02:57:16.184Z,62.64
2018-06-01T02:59:45.364Z,62.38
2018-06-01T03:02:13.800Z,62.15
2018-06-01T03:04:43.105Z,62.02
2018-06-01T03:07:12.380Z,62.06
2018-06-01T03:09:40.750Z,62.38
2018-06-01T03:12:10.009Z,62.16
2018-06-01T03:14:38.426Z,62.20
2018-06-01T03:17:07.522Z,62.60
2018-06-01T03:19:35.911Z,62.82
2018-06-01T03:22:04.276Z,62.66
2018-06-01T03:24:33.408Z,62.99
2018-06-01T03:27:01.880Z,62.70
2018-06-01T03:29:30.243Z,62.92
2018-06-01T03:31:58.620Z,63.41
2018-06-01T03:34:26.968Z,63.90
2018-06-01T03:36:55.324Z,63.93
2018-06-01T03:39:23.779Z,64.01
2018-06-01T03:41:52.163Z,63.93
2018-06-01T03:44:20.667Z,64.41
2018-06-01T03:46:49.057Z,64.29
2018-06-01T03:49:17.461Z,64.24
2018-06-01T03:51:46.602Z,63.90
2018-06-01T03:54:15.952Z,63.96
2018-06-01T03:56:44.584Z,64.34
2018-06-01T03:59:13.889Z,64.72
2018-06-01T04:01:42.239Z,65.16
2018-06-01T04:04:10.621Z,64.89
2018-06-01T04:06:38.996Z,64.35
2018-06-01T04:09:07.356Z,64.60
2018-06-01T04:11:36.478Z,64.32
2018-06-01T04:14:05.760Z,64.35
2018-06-01T04:16:34.147Z,64.18
2018-06-01T04:19:02.625Z,64.21
2018-06-01T04:21:31.004Z,64.12
2018-06-01T04:24:00.881Z,63.93
2018-06-01T04:26:30.054Z,63.78
2018-06-01T04:28:58.533Z,63.93
2018-06-01T04:31:35.761Z,64.03
2018-06-01T04:34:04.403Z,63.83
2018-06-01T04:36:32.763Z,63.79
2018-06-01T04:39:01.157Z,63.80
2018-06-01T04:41:31.112Z,63.81
2018-06-01T04:43:59.477Z,63.48
2018-06-01T04:46:27.902Z,63.79
2018-06-01T04:48:56.381Z,63.23
2018-06-01T04:51:25.265Z,63.36
2018-06-01T04:53:54.434Z,63.38
2018-06-01T04:56:22.788Z,63.73
2018-06-01T04:58:51.886Z,63.71
2018-06-01T05:01:20.246Z,64.01
2018-06-01T05:03:49.405Z,63.97
2018-06-01T05:06:18.609Z,64.03
2018-06-01T05:08:47.732Z,64.55
2018-06-01T05:11:16.468Z,64.78
2018-06-01T05:13:45.481Z,64.89
2018-06-01T05:16:14.687Z,65.05
2018-06-01T05:18:43.049Z,65.11
2018-06-01T05:21:12.163Z,64.96
2018-06-01T05:23:40.534Z,65.07
2018-06-01T05:26:09.681Z,65.16
2018-06-01T05:28:38.068Z,65.16
2018-06-01T05:31:06.435Z,65.37
2018-06-01T05:33:34.774Z,65.01
2018-06-01T05:36:03.118Z,64.22
2018-06-01T05:38:31.462Z,64.07
2018-06-01T05:40:59.832Z,64.19
2018-06-01T05:43:28.175Z,64.10
2018-06-01T05:45:58.200Z,64.09
2018-06-01T05:48:26.504Z,63.34
2018-06-01T05:50:54.850Z,63.40
2018-06-01T05:53:23.236Z,63.62
2018-06-01T05:55:52.723Z,63.80
2018-06-01T05:58:23.976Z,63.79
2018-06-01T06:00:53.315Z,63.75
2018-06-01T06:03:21.665Z,63.41
2018-06-01T06:05:51.516Z,63.20
2018-06-01T06:08:20.017Z,62.83
2018-06-01T06:10:48.489Z,62.54
2018-06-01T06:13:16.889Z,62.52
2018-06-01T06:15:46.324Z,62.05
2018-06-01T06:18:15.860Z,62.19
2018-06-01T06:20:44.193Z,62.03
2018-06-01T06:23:14.408Z,61.20
2018-06-01T06:25:44.619Z,60.76
2018-06-01T06:28:12.968Z,60.39
2018-06-01T06:30:42.145Z,61.14
2018-06-01T06:33:10.531Z,61.14
2018-06-01T06:35:39.601Z,60.78
2018-06-01T06:38:07.966Z,59.57
2018-06-01T06:40:37.127Z,59.30
2018-06-01T06:43:06.297Z,59.41
2018-06-01T06:45:35.641Z,58.67
2018-06-01T06:48:04.630Z,58.13
2018-06-01T06:50:33.052Z,58.53
2018-06-01T06:53:01.477Z,58.80
2018-06-01T06:55:29.836Z,59.33
2018-06-01T06:57:58.298Z,58.94
2018-06-01T07:00:26.628Z,59.02
2018-06-01T07:02:55.029Z,58.76
2018-06-01T07:05:24.137Z,58.68
2018-06-01T07:07:52.580Z,58.42
2018-06-01T07:10:21.115Z,58.49
2018-06-01T07:12:49.469Z,58.54
2018-06-01T07:15:18.633Z,58.92
2018-06-01T07:17:47.029Z,59.17
2018-06-01T07:20:15.416Z,59.09
2018-06-01T07:22:44.397Z,59.46
2018-06-01T07:25:12.752Z,60.00
2018-06-01T07:27:41.162Z,60.22
2018-06-01T07:30:09.576Z,60.07
2018-06-01T07:32:38.097Z,60.67
2018-06-01T07:35:06.535Z,60.76
2018-06-01T07:37:35.665Z,60.89
2018-06-01T07:40:04.821Z,61.01
2018-06-01T07:42:33.207Z,61.05
2018-06-01T07:45:01.913Z,60.89
2018-06-01T07:47:30.272Z,60.85
2018-06-01T07:49:58.873Z,61.08
2018-06-01T07:52:27.409Z,61.03
2018-06-01T07:54:56.593Z,60.28
2018-06-01T07:57:24.964Z,60.66
2018-06-01T07:59:53.356Z,60.74
2018-06-01T08:02:22.525Z,60.88
2018-06-01T08:04:51.499Z,60.82
2018-06-01T08:07:19.857Z,60.87
2018-06-01T08:09:48.280Z,60.72
2018-06-01T08:12:18.038Z,60.85
2018-06-01T08:14:47.307Z,61.50
2018-06-01T08:17:16.564Z,61.77
2018-06-01T08:19:45.222Z,61.85
2018-06-01T08:22:13.641Z,61.56
2018-06-01T08:24:42.755Z,61.31
2018-06-01T08:27:11.154Z,60.58
2018-06-01T08:29:40.314Z,60.33
2018-06-01T08:32:09.514Z,62.07
2018-06-01T08:34:37.877Z,62.00
2018-06-01T08:37:06.289Z,61.98
2018-06-01T08:39:34.777Z,62.39
2018-06-01T08:42:03.862Z,61.99
2018-06-01T08:44:32.316Z,61.84
2018-06-01T08:47:00.661Z,62.57
2018-06-01T08:49:29.071Z,63.33
2018-06-01T08:51:57.787Z,63.45
2018-06-01T08:54:26.196Z,64.33
2018-06-01T08:56:55.412Z,64.81
2018-06-01T08:59:23.898Z,65.51
2018-06-01T09:01:53.059Z,62.94
2018-06-01T09:04:21.590Z,65.75
2018-06-01T09:06:49.962Z,65.43
2018-06-01T09:09:20.322Z,63.90
2018-06-01T09:11:49.767Z,61.33
2018-06-01T09:14:19.215Z,63.37
2018-06-01T09:16:47.668Z,61.06
2018-06-01T09:19:16.059Z,62.59
2018-06-01T09:21:44.500Z,64.09
2018-06-01T09:24:13.684Z,62.90
2018-06-01T09:26:42.111Z,62.70
2018-06-01T09:29:10.460Z,59.63
2018-06-01T09:31:39.571Z,60.14
2018-06-01T09:34:09.591Z,61.83
2018-06-01T09:36:37.942Z,61.66
2018-06-01T09:39:07.139Z,59.75
2018-06-01T09:41:35.511Z,60.11
2018-06-01T09:44:05.403Z,60.99
2018-06-01T09:46:34.551Z,59.93
2018-06-01T09:49:02.917Z,59.86
2018-06-01T09:51:32.215Z,60.52
2018-06-01T09:54:01.661Z,60.17
2018-06-01T09:56:30.038Z,60.41
2018-06-01T09:58:58.375Z,59.72
2018-06-01T10:01:29.401Z,62.04
2018-06-01T10:03:59.206Z,60.53
2018-06-01T10:06:27.641Z,61.09
2018-06-01T10:08:55.979Z,61.29
2018-06-01T10:11:25.143Z,60.24
2018-06-01T10:13:53.509Z,59.88
2018-06-01T10:16:22.095Z,59.65
2018-06-01T10:18:50.464Z,60.77
2018-06-01T10:21:18.816Z,60.58
2018-06-01T10:23:47.976Z,59.91
2018-06-01T10:26:16.378Z,58.56
2018-06-01T10:28:45.547Z,58.21
2018-06-01T10:31:13.901Z,58.16
2018-06-01T10:33:42.305Z,58.01
2018-06-01T10:36:10.674Z,58.20
2018-06-01T10:38:39.899Z,57.54
2018-06-01T10:41:09.062Z,56.14
2018-06-01T10:43:37.500Z,56.85
2018-06-01T10:46:05.888Z,57.00
2018-06-01T10:48:35.274Z,56.42
2018-06-01T10:51:04.439Z,56.91
2018-06-01T10:53:33.130Z,56.18
2018-06-01T10:56:02.705Z,56.20
2018-06-01T10:58:31.346Z,56.75
2018-06-01T11:01:00.514Z,56.98
2018-06-01T11:03:28.981Z,57.67
2018-06-01T11:05:57.407Z,57.50
2018-06-01T11:08:26.538Z,58.04
2018-06-01T11:10:54.948Z,58.02
2018-06-01T11:13:24.862Z,58.52
2018-06-01T11:15:53.553Z,59.52
2018-06-01T11:18:23.249Z,59.88
2018-06-01T11:20:51.615Z,59.57
2018-06-01T11:23:21.547Z,59.63
2018-06-01T11:25:49.879Z,59.07
2018-06-01T11:28:18.237Z,59.96
2018-06-01T11:30:48.502Z,60.24
2018-06-01T11:33:17.798Z,61.14
2018-06-01T11:35:47.084Z,61.09
2018-06-01T11:38:15.568Z,61.23
2018-06-01T11:40:44.233Z,61.45
2018-06-01T11:43:14.060Z,61.29
2018-06-01T11:45:42.471Z,61.90
2018-06-01T11:48:10.811Z,62.17
2018-06-01T11:50:39.780Z,62.57
2018-06-01T11:53:08.130Z,63.36
2018-06-01T11:55:36.552Z,63.06
2018-06-01T11:58:04.916Z,63.72
2018-06-01T12:00:34.994Z,62.62
2018-06-01T12:03:03.393Z,59.13
2018-06-01T12:05:31.800Z,58.47
2018-06-01T12:08:00.905Z,58.92
2018-06-01T12:10:30.076Z,59.91
2018-06-01T12:13:00.283Z,60.32
2018-06-01T12:15:28.655Z,61.13
2018-06-01T12:17:57.043Z,61.38
2018-06-01T12:20:26.225Z,61.77
2018-06-01T12:22:54.610Z,62.30
2018-06-01T12:25:22.986Z,62.93
2018-06-01T12:27:51.450Z,63.49
2018-06-01T12:30:20.167Z,63.66
2018-06-01T12:32:48.519Z,63.97
2018-06-01T12:35:16.895Z,64.06
2018-06-01T12:37:45.356Z,63.82
2018-06-01T12:40:14.426Z,64.16
2018-06-01T12:42:44.165Z,64.41
2018-06-01T12:45:12.553Z,65.08
2018-06-01T12:47:41.003Z,64.38
2018-06-01T12:50:10.500Z,64.22
2018-06-01T12:52:39.585Z,64.15
2018-06-01T12:55:08.862Z,64.25
2018-06-01T12:57:37.219Z,64.39
2018-06-01T13:00:05.623Z,64.32
2018-06-01T13:02:34.266Z,63.43
2018-06-01T13:05:02.674Z,63.42
2018-06-01T13:07:31.475Z,62.99
2018-06-01T13:09:59.844Z,62.77
2018-06-01T13:12:29.102Z,63.21
2018-06-01T13:14:57.496Z,62.58
2018-06-01T13:17:26.719Z,63.02
2018-06-01T13:19:55.084Z,62.86
2018-06-01T13:22:24.669Z,63.41
2018-06-01T13:24:54.661Z,63.27
2018-06-01T13:27:24.760Z,63.77
2018-06-01T13:29:53.154Z,64.00
2018-06-01T13:32:21.720Z,64.29
2018-06-01T13:34:50.104Z,63.73
2018-06-01T13:37:18.440Z,63.76
2018-06-01T13:39:47.278Z,62.88
2018-06-01T13:42:18.100Z,63.14
2018-06-01T13:44:47.261Z,63.52
2018-06-01T13:47:17.377Z,63.70
2018-06-01T13:49:46.623Z,64.73
2018-06-01T13:52:16.037Z,64.97
2018-06-01T13:54:45.464Z,64.98
2018-06-01T13:57:13.831Z,64.49
2018-06-01T13:59:42.981Z,64.24
2018-06-01T14:02:11.388Z,64.77
2018-06-01T14:04:39.832Z,66.08
2018-06-01T14:07:08.260Z,65.47
2018-06-01T14:09:38.031Z,65.05
2018-06-01T14:12:07.858Z,63.37
2018-06-01T14:14:37.093Z,64.19
2018-06-01T14:17:05.455Z,64.11
2018-06-01T14:19:34.592Z,64.18
2018-06-01T14:22:03.025Z,64.27
2018-06-01T14:24:32.406Z,64.85
2018-06-01T14:27:00.911Z,65.12
2018-06-01T14:29:29.307Z,64.78
2018-06-01T14:31:58.439Z,64.23
2018-06-01T14:34:26.858Z,64.05
2018-06-01T14:36:55.326Z,64.85
2018-06-01T14:39:26.162Z,64.82
2018-06-01T14:41:54.545Z,64.36
2018-06-01T14:44:23.728Z,64.56
2018-06-01T14:46:52.924Z,65.44
2018-06-01T14:49:21.266Z,65.46
2018-06-01T14:51:49.629Z,65.11
2018-06-01T14:54:17.971Z,64.15
2018-06-01T14:56:46.440Z,63.61
2018-06-01T14:59:14.885Z,63.53
2018-06-01T15:01:43.337Z,62.07
2018-06-01T15:04:12.468Z,62.63
2018-06-01T15:06:41.660Z,61.60
2018-06-01T15:09:10.067Z,61.58
2018-06-01T15:11:41.181Z,61.60
2018-06-01T15:14:09.564Z,60.59
2018-06-01T15:16:38.299Z,60.10
2018-06-01T15:19:06.751Z,59.76
2018-06-01T15:21:35.201Z,60.10
2018-06-01T15:24:04.317Z,58.69
2018-06-01T15:26:32.725Z,57.48
2018-06-01T15:29:01.767Z,58.38
2018-06-01T15:31:30.912Z,57.39
2018-06-01T15:34:00.050Z,56.57
2018-06-01T15:36:30.390Z,55.71
2018-06-01T15:38:58.741Z,55.07
2018-06-01T15:41:28.051Z,55.11
2018-06-01T15:43:58.072Z,55.90
2018-06-01T15:46:27.018Z,54.04
2018-06-01T15:48:56.194Z,53.80
2018-06-01T15:51:25.607Z,54.11
2018-06-01T15:53:54.935Z,51.87
2018-06-01T15:56:24.546Z,51.12
2018-06-01T15:58:53.045Z,50.47
2018-06-01T16:01:21.841Z,51.05
2018-06-01T16:03:50.985Z,51.17
2018-06-01T16:06:19.389Z,49.50
2018-06-01T16:08:48.421Z,50.22
2018-06-01T16:11:18.226Z,50.79
2018-06-01T16:13:47.320Z,49.94
2018-06-01T16:16:17.200Z,49.93
2018-06-01T16:18:45.547Z,49.80
2018-06-01T16:21:14.674Z,49.95
2018-06-01T16:23:43.059Z,51.42
2018-06-01T16:26:12.212Z,51.25
2018-06-01T16:28:41.005Z,51.82
2018-06-01T16:31:09.654Z,51.89
2018-06-01T16:33:39.284Z,51.79
2018-06-01T16:36:07.700Z,52.44
2018-06-01T16:38:36.099Z,53.69
2018-06-01T16:41:05.041Z,53.10
2018-06-01T16:43:33.530Z,55.17
2018-06-01T16:46:01.897Z,53.54
2018-06-01T16:48:31.536Z,54.61
2018-06-01T16:50:59.913Z,53.54
2018-06-01T16:53:28.276Z,54.57
2018-06-01T16:55:57.490Z,54.01
2018-06-01T16:58:26.699Z,54.80
2018-06-01T17:00:55.075Z,53.71
2018-06-01T17:03:23.515Z,53.83
2018-06-01T17:05:52.783Z,52.98
2018-06-01T17:08:21.267Z,52.48
2018-06-01T17:10:51.471Z,52.11
2018-06-01T17:13:19.856Z,51.67
2018-06-01T17:15:48.245Z,51.66
2018-06-01T17:18:18.041Z,51.48
2018-06-01T17:20:46.425Z,50.79
2018-06-01T17:23:14.941Z,49.77
2018-06-01T17:25:44.164Z,49.54
2018-06-01T17:28:14.343Z,49.62
2018-06-01T17:30:43.483Z,49.85
2018-06-01T17:33:11.922Z,49.62
2018-06-01T17:35:41.036Z,49.65
2018-06-01T17:38:10.207Z,49.83
2018-06-01T17:40:39.482Z,52.35
2018-06-01T17:43:08.737Z,49.95
2018-06-01T17:45:37.146Z,49.92
2018-06-01T17:48:06.883Z,50.25
2018-06-01T17:50:35.314Z,50.32
2018-06-01T17:53:05.244Z,50.37
2018-06-01T17:55:34.653Z,50.71
2018-06-01T17:58:03.136Z,50.89
2018-06-01T18:00:34.065Z,51.43
2018-06-01T18:03:02.559Z,51.33
2018-06-01T18:05:30.904Z,52.06
2018-06-01T18:07:59.287Z,51.54
2018-06-01T18:10:28.114Z,51.63
2018-06-01T18:12:56.542Z,51.56
2018-06-01T18:15:25.707Z,51.86
2018-06-01T18:17:54.335Z,51.94
2018-06-01T18:20:23.769Z,52.09
2018-06-01T18:22:52.130Z,52.07
2018-06-01T18:25:20.518Z,52.46
2018-06-01T18:27:48.864Z,52.63
2018-06-01T18:30:18.023Z,52.86
2018-06-01T18:32:47.612Z,53.00
2018-06-01T18:35:16.869Z,53.13
2018-06-01T18:37:45.342Z,53.77
2018-06-01T18:40:15.052Z,54.60
2018-06-01T18:42:43.427Z,54.64
2018-06-01T18:45:12.652Z,54.79
2018-06-01T18:47:42.128Z,55.32
2018-06-01T18:50:11.301Z,56.01
2018-06-01T18:52:39.647Z,56.42
2018-06-01T18:55:08.860Z,56.35
2018-06-01T18:57:37.245Z,56.90
2018-06-01T19:00:06.003Z,57.66
2018-06-01T19:02:34.417Z,58.13
2018-06-01T19:05:03.979Z,58.47
2018-06-01T19:07:33.365Z,58.35
2018-06-01T19:10:01.735Z,58.64
2018-06-01T19:12:31.506Z,59.12
2018-06-01T19:14:59.865Z,58.84
2018-06-01T19:17:29.262Z,59.46
2018-06-01T19:19:58.253Z,60.12
2018-06-01T19:22:26.952Z,59.81
2018-06-01T19:24:59.273Z,60.30
2018-06-01T19:27:28.480Z,60.74
2018-06-01T19:29:57.942Z,60.95
2018-06-01T19:32:26.405Z,61.09
2018-06-01T19:34:55.181Z,61.31
2018-06-01T19:37:23.798Z,61.18
2018-06-01T19:39:52.205Z,61.03
2018-06-01T19:42:21.518Z,61.37
2018-06-01T19:44:49.878Z,61.54
2018-06-01T19:47:19.108Z,61.51
2018-06-01T19:49:48.383Z,61.75
2018-06-01T19:52:18.411Z,61.79
2018-06-01T19:54:46.928Z,62.29
2018-06-01T19:57:15.308Z,62.22
2018-06-01T19:59:43.783Z,62.22
2018-06-01T20:02:12.253Z,61.91
2018-06-01T20:04:40.603Z,62.23
2018-06-01T20:07:09.749Z,62.99
2018-06-01T20:09:38.173Z,63.40
2018-06-01T20:12:07.355Z,63.33
2018-06-01T20:14:35.746Z,63.83
2018-06-01T20:17:04.906Z,63.83
2018-06-01T20:19:33.269Z,63.93
2018-06-01T20:22:02.591Z,64.02
2018-06-01T20:24:31.111Z,64.52
2018-06-01T20:27:00.265Z,64.95
2018-06-01T20:29:28.640Z,65.10
2018-06-01T20:31:57.034Z,65.30
2018-06-01T20:34:25.754Z,64.94
2018-06-01T20:36:54.927Z,65.05
2018-06-01T20:39:23.273Z,65.41
2018-06-01T20:41:51.654Z,65.62
2018-06-01T20:44:20.235Z,66.42
2018-06-01T20:46:49.616Z,66.31
2018-06-01T20:49:17.965Z,66.03
2018-06-01T20:51:47.125Z,65.56
2018-06-01T20:54:15.512Z,65.30
2018-06-01T20:56:44.943Z,65.29
2018-06-01T20:59:13.508Z,65.54
2018-06-01T21:01:41.965Z,65.34
2018-06-01T21:04:11.134Z,65.87
2018-06-01T21:06:39.942Z,65.51
2018-06-01T21:09:09.368Z,65.74
2018-06-01T21:11:37.774Z,66.04
2018-06-01T21:14:06.958Z,66.11
2018-06-01T21:16:36.898Z,66.21
2018-06-01T21:19:05.285Z,66.16
2018-06-01T21:21:33.748Z,66.25
2018-06-01T21:24:03.014Z,66.38
2018-06-01T21:26:31.403Z,66.17
2018-06-01T21:29:00.073Z,65.93
2018-06-01T21:31:29.887Z,65.88
2018-06-01T21:33:58.631Z,66.00
2018-06-01T21:36:28.363Z,66.46
2018-06-01T21:38:56.792Z,66.21
2018-06-01T21:41:25.269Z,66.13
2018-06-01T21:43:54.411Z,66.18
2018-06-01T21:46:22.818Z,66.17
2018-06-01T21:48:51.205Z,66.30
2018-06-01T21:51:19.780Z,66.87
2018-06-01T21:53:48.243Z,66.22
2018-06-01T21:56:16.604Z,66.67
2018-06-01T21:58:45.079Z,66.80
2018-06-01T22:01:13.495Z,66.64
2018-06-01T22:03:41.881Z,66.67
2018-06-01T22:06:10.607Z,66.75
2018-06-01T22:08:41.143Z,67.25
2018-06-01T22:11:10.301Z,68.09
2018-06-01T22:13:38.680Z,67.93
2018-06-01T22:16:07.965Z,67.63
2018-06-01T22:18:36.367Z,67.96
2018-06-01T22:21:04.725Z,67.87
2018-06-01T22:23:33.965Z,67.91
2018-06-01T22:26:03.597Z,67.82
2018-06-01T22:28:33.400Z,68.14
2018-06-01T22:31:01.810Z,68.41
2018-06-01T22:33:30.222Z,68.71
2018-06-01T22:35:58.678Z,68.89
2018-06-01T22:38:27.169Z,68.89
2018-06-01T22:40:55.655Z,69.13
2018-06-01T22:43:24.056Z,69.19
2018-06-01T22:45:52.417Z,69.48
2018-06-01T22:48:20.776Z,69.34
2018-06-01T22:50:49.416Z,69.53
2018-06-01T22:53:19.080Z,69.14
2018-06-01T22:55:48.227Z,69.12
2018-06-01T22:58:18.483Z,69.26
2018-06-01T23:00:46.854Z,69.27
2018-06-01T23:03:15.204Z,69.56
2018-06-01T23:05:44.305Z,70.09
2018-06-01T23:08:13.741Z,70.19
2018-06-01T23:10:42.143Z,70.40
2018-06-01T23:13:10.497Z,70.23
2018-06-01T23:15:38.867Z,69.98
2018-06-01T23:18:07.561Z,70.11
2018-06-01T23:20:35.927Z,70.58
2018-06-01T23:23:05.133Z,70.56
2018-06-01T23:25:33.544Z,70.10
2018-06-01T23:28:03.564Z,69.78
2018-06-01T23:30:32.014Z,69.40
2018-06-01T23:33:02.970Z,69.13
2018-06-01T23:35:31.535Z,69.15
2018-06-01T23:38:01.096Z,69.16
2018-06-01T23:40:31.228Z,69.12
2018-06-01T23:43:00.268Z,68.87
2018-06-01T23:45:29.257Z,69.02
2018-06-01T23:47:57.684Z,69.25
2018-06-01T23:50:30.285Z,69.89
2018-06-01T23:53:01.275Z,70.00
2018-06-01T23:55:30.721Z,69.41
2018-06-01T23:57:59.896Z,69.37
